Portada
METAR-TAF:

METAR-TAF

Aeroports :

Tientsin, Xina

latitud: 39-11N, longitud: 117-21E, altitud: 3 m

Observació

L'informe es va fer fa 32 minuts, a les 01:30 UTC
Vent 17 kt del Est/Sud-Est
Temperatura 24°C
Humitat 34%
Pressió 1019 hPa
Visibilitat 10 km o més
sense núvols per sota de 1500 mi sense presència de cumulonimbus.

METAR: ZBTJ 160130Z 11009MPS CAVOK 24/07 Q1019 NOSIG

Hora: 10:02 (02:02 UTC)

Pronòstic

L'informe es va fer fa 6 hores i 41 minuts, a les 19:21 UTC
Pronòstic vàlid del 16 a les 00 UTC al 16 a les 24 UTC
Vent 8 kt del Est/Nord-Est
Visibilitat: 5000 m
calitja

TAF: ZBTJ 151921Z 1600/1624 07004MPS 5000 HZ NSC TX26/1607Z TN17/1621Z

Observacions i pronòstics meteorològics de més de 4000 aeroports (METAR i TAF).

Les estacions disponibles són els punts grocs i vermells al mapa.

Posi el ratolí al punt desitjat per veure el nom de l'estació.

Feu clic per veure les observacions i els pronòstics meteorològics.

Per canviar el mapa: feu clic els botons verds amb una creu de color negre per apropar; al botó verd amb un guió per allunyar la imatge; o en les fletxes verdes per a mapes adjacents.


METAR-TAF: